createdAt,value
2022-11-03T00:01:53.048Z,8.90
2022-11-03T00:04:24.981Z,8.80
2022-11-03T00:06:56.917Z,8.60
2022-11-03T00:09:27.885Z,8.50
2022-11-03T00:11:59.077Z,8.50
2022-11-03T00:14:30.771Z,8.50
2022-11-03T00:17:01.321Z,8.30
2022-11-03T00:19:31.976Z,8.30
2022-11-03T00:22:02.516Z,8.30
2022-11-03T00:24:33.077Z,8.40
2022-11-03T00:27:03.739Z,8.50
2022-11-03T00:29:34.281Z,8.50
2022-11-03T00:32:04.816Z,8.50
2022-11-03T00:34:35.442Z,8.60
2022-11-03T00:37:05.966Z,8.70
2022-11-03T00:39:36.758Z,8.50
2022-11-03T00:42:07.576Z,8.30
2022-11-03T00:44:38.187Z,8.10
2022-11-03T00:47:08.836Z,8.00
2022-11-03T00:49:39.388Z,8.00
2022-11-03T00:52:09.921Z,8.00
2022-11-03T00:54:44.793Z,8.30
2022-11-03T00:57:13.448Z,8.20
2022-11-03T00:59:44.062Z,8.10
2022-11-03T01:02:14.678Z,8.60
2022-11-03T01:05:02.989Z,8.60
2022-11-03T01:07:33.497Z,8.70
2022-11-03T01:10:04.181Z,8.60
2022-11-03T01:12:34.763Z,8.70
2022-11-03T01:15:05.861Z,8.50
2022-11-03T01:17:36.443Z,8.30
2022-11-03T01:20:08.503Z,8.20
2022-11-03T01:22:39.010Z,8.10
2022-11-03T01:25:10.871Z,8.20
2022-11-03T01:27:41.469Z,8.10
2022-11-03T01:30:13.822Z,7.90
2022-11-03T01:32:44.388Z,7.80
2022-11-03T01:35:15.170Z,7.60
2022-11-03T01:37:45.707Z,7.60
2022-11-03T01:40:16.300Z,7.50
2022-11-03T01:42:46.847Z,7.40
2022-11-03T01:45:17.694Z,7.40
2022-11-03T01:47:49.364Z,7.60
2022-11-03T01:50:21.199Z,7.70
2022-11-03T01:52:54.708Z,7.70
2022-11-03T01:55:28.294Z,7.70
2022-11-03T01:58:01.563Z,7.70
2022-11-03T02:00:32.178Z,7.70
2022-11-03T02:03:03.499Z,7.90
2022-11-03T02:05:34.434Z,8.10
2022-11-03T02:10:40.235Z,8.10
2022-11-03T02:13:14.394Z,8.10
2022-11-03T02:15:45.857Z,8.30
2022-11-03T02:18:17.607Z,8.10
2022-11-03T02:20:51.072Z,7.90
2022-11-03T02:23:30.832Z,7.90
2022-11-03T02:26:02.610Z,8.10
2022-11-03T02:28:34.736Z,8.00
2022-11-03T02:31:10.803Z,8.10
2022-11-03T02:33:47.143Z,8.20
2022-11-03T02:36:22.508Z,8.20
2022-11-03T02:38:57.341Z,8.30
2022-11-03T02:41:29.984Z,8.20
2022-11-03T02:44:01.864Z,8.00
2022-11-03T02:46:33.839Z,8.00
2022-11-03T02:49:04.768Z,7.90
2022-11-03T02:51:35.610Z,8.30
2022-11-03T02:54:10.470Z,8.30
2022-11-03T02:56:44.415Z,8.30
2022-11-03T02:59:17.992Z,8.10
2022-11-03T03:01:52.755Z,7.90
2022-11-03T03:04:27.196Z,7.70
2022-11-03T03:07:01.917Z,7.80
2022-11-03T03:09:35.424Z,7.90
2022-11-03T03:12:08.193Z,8.10
2022-11-03T03:14:42.188Z,8.40
2022-11-03T03:17:16.423Z,8.30
2022-11-03T03:19:51.085Z,8.20
2022-11-03T03:22:26.364Z,8.20
2022-11-03T03:25:00.042Z,7.80
2022-11-03T03:27:32.926Z,7.90
2022-11-03T03:30:06.618Z,8.30
2022-11-03T03:32:39.989Z,8.50
2022-11-03T03:35:14.389Z,8.80
2022-11-03T03:37:47.387Z,8.80
2022-11-03T03:40:22.455Z,8.30
2022-11-03T03:42:54.531Z,8.00
2022-11-03T03:45:27.877Z,8.00
2022-11-03T03:47:58.523Z,7.90
2022-11-03T03:50:32.430Z,8.10
2022-11-03T03:53:04.424Z,8.30
2022-11-03T03:55:37.986Z,8.20
2022-11-03T03:58:09.691Z,8.20
2022-11-03T04:00:42.639Z,8.20
2022-11-03T04:03:17.690Z,8.40
2022-11-03T04:05:48.671Z,8.50
2022-11-03T04:08:19.710Z,8.70
2022-11-03T04:11:09.141Z,8.70
2022-11-03T04:13:57.145Z,8.70
2022-11-03T04:16:45.630Z,8.60
2022-11-03T04:19:53.281Z,8.70
2022-11-03T04:25:02.206Z,8.60
2022-11-03T04:27:34.951Z,8.50
2022-11-03T04:30:17.173Z,8.50
2022-11-03T04:32:49.731Z,8.40
2022-11-03T04:35:23.965Z,8.20
2022-11-03T04:37:58.029Z,8.20
2022-11-03T04:40:28.766Z,8.20
2022-11-03T04:43:00.425Z,8.30
2022-11-03T04:45:34.882Z,8.00
2022-11-03T04:48:10.138Z,7.90
2022-11-03T04:50:46.428Z,7.70
2022-11-03T04:53:15.744Z,7.60
2022-11-03T04:55:47.706Z,7.60
2022-11-03T04:58:21.948Z,7.50
2022-11-03T05:00:55.238Z,7.60
2022-11-03T05:03:27.328Z,7.70
2022-11-03T05:05:58.678Z,7.70
2022-11-03T05:08:29.338Z,7.60
2022-11-03T05:11:01.127Z,7.70
2022-11-03T05:13:31.777Z,7.70
2022-11-03T05:16:05.052Z,7.70
2022-11-03T05:18:38.754Z,7.60
2022-11-03T05:21:12.255Z,7.70
2022-11-03T05:23:45.668Z,7.90
2022-11-03T05:26:19.710Z,8.10
2022-11-03T05:28:53.743Z,8.20
2022-11-03T05:31:29.748Z,7.90
2022-11-03T05:34:02.880Z,8.30
2022-11-03T05:36:34.859Z,8.10
2022-11-03T05:39:13.409Z,8.50
2022-11-03T05:41:44.288Z,8.10
2022-11-03T05:46:56.916Z,8.00
2022-11-03T05:49:28.626Z,8.50
2022-11-03T05:51:59.417Z,8.30
2022-11-03T05:54:32.961Z,8.20
2022-11-03T05:57:05.508Z,8.50
2022-11-03T05:59:36.125Z,8.50
2022-11-03T06:02:12.489Z,8.30
2022-11-03T06:04:43.570Z,8.20
2022-11-03T06:10:25.618Z,8.10
2022-11-03T06:13:00.441Z,7.90
2022-11-03T06:15:34.220Z,7.80
2022-11-03T06:18:13.403Z,7.90
2022-11-03T06:20:45.941Z,8.00
2022-11-03T06:23:19.683Z,8.10
2022-11-03T06:25:53.007Z,8.20
2022-11-03T06:28:26.949Z,8.20
2022-11-03T06:30:57.851Z,8.20
2022-11-03T06:33:32.367Z,8.40
2022-11-03T06:36:05.234Z,8.50
2022-11-03T06:38:37.430Z,8.50
2022-11-03T06:41:11.364Z,8.60
2022-11-03T06:43:47.197Z,8.60
2022-11-03T06:46:22.273Z,8.60
2022-11-03T06:48:54.944Z,8.60
2022-11-03T06:51:28.481Z,8.60
2022-11-03T06:54:01.618Z,8.60
2022-11-03T06:59:15.682Z,8.20
2022-11-03T07:01:50.231Z,8.40
2022-11-03T07:04:24.011Z,8.40
2022-11-03T07:06:54.659Z,8.50
2022-11-03T07:09:27.165Z,8.60
2022-11-03T07:11:59.542Z,8.60
2022-11-03T07:14:32.538Z,8.60
2022-11-03T07:17:06.189Z,8.70
2022-11-03T07:19:39.367Z,8.80
2022-11-03T07:22:14.555Z,8.70
2022-11-03T07:24:48.210Z,8.80
2022-11-03T07:27:22.250Z,8.80
2022-11-03T07:29:54.410Z,8.90
2022-11-03T07:32:28.046Z,9.00
2022-11-03T07:35:01.747Z,9.00
2022-11-03T07:37:32.280Z,9.10
2022-11-03T07:40:02.966Z,9.30
2022-11-03T07:42:35.070Z,9.40
2022-11-03T07:45:13.033Z,9.50
2022-11-03T07:47:45.347Z,9.70
2022-11-03T07:50:18.668Z,9.90
2022-11-03T07:52:49.349Z,10.10
2022-11-03T07:55:20.222Z,10.20
2022-11-03T07:57:50.904Z,10.20
2022-11-03T08:00:23.014Z,10.30
2022-11-03T08:02:56.507Z,10.40
2022-11-03T08:05:28.074Z,10.50
2022-11-03T08:07:58.616Z,10.70
2022-11-03T08:10:29.176Z,10.80
2022-11-03T08:15:39.546Z,11.00
2022-11-03T08:18:10.116Z,10.90
2022-11-03T08:20:40.656Z,10.70
2022-11-03T08:23:25.123Z,10.80
2022-11-03T08:25:44.439Z,10.90
2022-11-03T08:28:14.966Z,11.00
2022-11-03T08:30:45.535Z,11.10
2022-11-03T08:33:16.105Z,11.20
2022-11-03T08:35:46.714Z,11.40
2022-11-03T08:38:17.296Z,11.40
2022-11-03T08:40:51.369Z,11.50
2022-11-03T08:43:20.025Z,11.50
2022-11-03T08:45:53.451Z,11.60
2022-11-03T08:48:26.688Z,11.70
2022-11-03T08:50:57.968Z,11.80
2022-11-03T08:53:28.973Z,11.90
2022-11-03T08:55:59.536Z,11.90
2022-11-03T08:58:30.218Z,11.70
2022-11-03T09:01:00.909Z,11.80
2022-11-03T09:03:31.599Z,11.90
2022-11-03T09:06:02.163Z,12.00
2022-11-03T09:11:04.938Z,11.70
2022-11-03T09:13:35.664Z,11.70
2022-11-03T09:16:06.856Z,11.60
2022-11-03T09:18:37.583Z,11.70
2022-11-03T09:21:08.981Z,11.80
2022-11-03T09:23:39.562Z,12.00
2022-11-03T09:26:10.138Z,12.10
2022-11-03T09:28:40.727Z,12.20
2022-11-03T09:31:11.307Z,12.40
2022-11-03T09:33:41.920Z,12.50
2022-11-03T09:36:12.838Z,12.30
2022-11-03T09:38:43.402Z,12.30
2022-11-03T09:41:26.749Z,12.40
2022-11-03T09:43:50.168Z,12.60
2022-11-03T09:46:21.731Z,12.70
2022-11-03T09:48:52.682Z,12.80
2022-11-03T09:51:25.043Z,13.00
2022-11-03T09:53:57.444Z,13.10
2022-11-03T09:56:28.484Z,13.10
2022-11-03T09:59:00.510Z,13.00
2022-11-03T10:01:51.340Z,12.70
2022-11-03T10:04:25.312Z,12.30
2022-11-03T10:06:57.198Z,11.70
2022-11-03T10:09:30.391Z,11.70
2022-11-03T10:12:01.091Z,11.80
2022-11-03T10:14:32.322Z,11.70
2022-11-03T10:17:03.161Z,11.40
2022-11-03T10:19:34.116Z,11.50
2022-11-03T10:22:04.756Z,11.60
2022-11-03T10:24:36.209Z,11.70
2022-11-03T10:27:08.555Z,11.80
2022-11-03T10:29:40.156Z,11.90
2022-11-03T10:32:17.188Z,12.00
2022-11-03T10:34:47.847Z,12.10
2022-11-03T10:37:21.785Z,12.20
2022-11-03T10:39:54.100Z,12.30
2022-11-03T10:42:30.492Z,12.40
2022-11-03T10:45:12.054Z,12.60
2022-11-03T10:47:42.631Z,12.60
2022-11-03T10:50:23.487Z,12.50
2022-11-03T10:52:54.468Z,12.40
2022-11-03T10:55:26.834Z,12.50
2022-11-03T10:57:59.524Z,12.40
2022-11-03T11:00:30.116Z,12.30
2022-11-03T11:03:02.762Z,12.30
2022-11-03T11:05:33.796Z,12.30
2022-11-03T11:08:04.521Z,12.00
2022-11-03T11:10:35.247Z,11.90
2022-11-03T11:13:35.056Z,11.70
2022-11-03T11:16:07.297Z,11.60
2022-11-03T11:19:04.370Z,11.50
2022-11-03T11:21:57.415Z,11.60
2022-11-03T11:28:00.344Z,11.50
2022-11-03T11:31:05.562Z,11.60
2022-11-03T11:33:36.234Z,11.80
2022-11-03T11:36:26.088Z,11.90
2022-11-03T11:39:01.494Z,11.90
2022-11-03T11:42:09.596Z,11.90
2022-11-03T11:44:53.170Z,11.90
2022-11-03T11:47:36.495Z,11.90
2022-11-03T11:50:43.378Z,11.90
2022-11-03T11:53:29.017Z,11.80
2022-11-03T11:55:58.265Z,11.80
2022-11-03T11:58:38.556Z,11.90
2022-11-03T12:01:23.047Z,11.90
2022-11-03T12:03:56.222Z,11.90
2022-11-03T12:06:37.074Z,11.90
2022-11-03T12:09:10.325Z,11.80
2022-11-03T12:11:46.388Z,11.80
2022-11-03T12:14:26.422Z,11.80
2022-11-03T12:16:57.888Z,11.80
2022-11-03T12:19:40.291Z,11.90
2022-11-03T12:22:16.467Z,11.70
2022-11-03T12:24:52.920Z,11.80
2022-11-03T12:27:44.400Z,11.80
2022-11-03T12:30:20.433Z,11.80
2022-11-03T12:32:52.208Z,11.80
2022-11-03T12:35:22.827Z,11.70
2022-11-03T12:37:53.428Z,11.80
2022-11-03T12:40:23.954Z,11.80
2022-11-03T12:42:54.483Z,11.80
2022-11-03T12:45:25.078Z,11.80
2022-11-03T12:47:55.603Z,11.80
2022-11-03T12:50:26.163Z,11.90
2022-11-03T12:52:56.705Z,11.90
2022-11-03T12:57:58.879Z,11.90
2022-11-03T13:00:29.417Z,11.90
2022-11-03T13:02:59.955Z,11.90
2022-11-03T13:05:30.744Z,11.90
2022-11-03T13:08:01.307Z,11.90
2022-11-03T13:10:31.885Z,11.90
2022-11-03T13:13:02.452Z,11.90
2022-11-03T13:15:53.281Z,12.00
2022-11-03T13:18:24.416Z,12.00
2022-11-03T13:20:54.967Z,12.10
2022-11-03T13:23:25.643Z,12.10
2022-11-03T13:25:56.254Z,12.20
2022-11-03T13:28:26.865Z,12.10
2022-11-03T13:30:57.415Z,12.10
2022-11-03T13:33:27.994Z,12.20
2022-11-03T13:35:58.661Z,12.20
2022-11-03T13:38:29.463Z,12.20
2022-11-03T13:41:05.313Z,12.20
2022-11-03T13:43:32.261Z,12.20
2022-11-03T13:46:04.218Z,12.20
2022-11-03T13:49:33.152Z,12.20
2022-11-03T13:51:09.020Z,12.20
2022-11-03T13:56:19.307Z,12.10
2022-11-03T14:01:16.625Z,12.30
2022-11-03T14:06:19.639Z,12.30
2022-11-03T14:08:50.182Z,12.40
2022-11-03T14:11:38.307Z,12.30
2022-11-03T14:14:08.868Z,12.30
2022-11-03T14:16:39.503Z,12.30
2022-11-03T14:19:10.389Z,12.30
2022-11-03T14:21:43.186Z,12.30
2022-11-03T14:24:13.806Z,12.30
2022-11-03T14:26:44.390Z,12.30
2022-11-03T14:29:33.761Z,12.40
2022-11-03T14:32:04.525Z,12.40
2022-11-03T14:34:35.243Z,12.50
2022-11-03T14:37:06.151Z,12.40
2022-11-03T14:39:37.410Z,12.50
2022-11-03T14:42:11.660Z,12.50
2022-11-03T14:44:43.103Z,12.50
2022-11-03T14:47:15.232Z,12.40
2022-11-03T14:49:46.006Z,12.40
2022-11-03T14:52:17.256Z,12.50
2022-11-03T14:54:48.451Z,12.50
2022-11-03T14:57:19.032Z,12.50
2022-11-03T15:00:11.339Z,12.50
2022-11-03T15:02:42.014Z,12.50
2022-11-03T15:05:14.513Z,12.50
2022-11-03T15:07:45.089Z,12.40
2022-11-03T15:10:15.739Z,12.40
2022-11-03T15:12:46.356Z,12.30
2022-11-03T15:15:17.077Z,12.40
2022-11-03T15:17:47.732Z,12.40
2022-11-03T15:20:18.644Z,12.30
2022-11-03T15:25:26.156Z,12.30
2022-11-03T15:27:53.613Z,12.30
2022-11-03T15:30:24.298Z,12.30
2022-11-03T15:32:56.587Z,12.30
2022-11-03T15:35:27.662Z,12.30
2022-11-03T15:37:59.306Z,12.30
2022-11-03T15:40:29.990Z,12.20
2022-11-03T15:43:03.078Z,12.20
2022-11-03T15:45:33.073Z,12.20
2022-11-03T15:48:03.922Z,12.20
2022-11-03T15:53:13.805Z,12.10
2022-11-03T15:55:44.411Z,12.10
2022-11-03T15:58:34.736Z,12.10
2022-11-03T16:01:05.470Z,12.10
2022-11-03T16:03:36.410Z,12.10
2022-11-03T16:06:07.555Z,12.10
2022-11-03T16:08:38.344Z,12.10
2022-11-03T16:11:09.336Z,12.10
2022-11-03T16:13:40.222Z,12.00
2022-11-03T16:16:11.146Z,12.10
2022-11-03T16:18:42.808Z,12.10
2022-11-03T16:21:13.536Z,12.10
2022-11-03T16:23:44.245Z,12.10
2022-11-03T16:26:15.046Z,12.10
2022-11-03T16:28:46.116Z,12.20
2022-11-03T16:31:16.903Z,12.10
2022-11-03T16:33:47.715Z,12.10
2022-11-03T16:36:19.026Z,12.10
2022-11-03T16:38:49.873Z,12.10
2022-11-03T16:41:20.511Z,12.10
2022-11-03T16:43:51.586Z,12.20
2022-11-03T16:46:23.123Z,12.20
2022-11-03T16:48:53.753Z,12.20
2022-11-03T16:51:24.437Z,12.20
2022-11-03T16:53:56.835Z,12.20
2022-11-03T16:56:27.393Z,12.20
2022-11-03T16:58:58.399Z,12.20
2022-11-03T17:01:29.666Z,12.20
2022-11-03T17:04:00.560Z,12.20
2022-11-03T17:06:31.220Z,12.20
2022-11-03T17:09:02.376Z,12.20
2022-11-03T17:11:39.694Z,12.20
2022-11-03T17:14:13.737Z,12.20
2022-11-03T17:16:47.004Z,12.20
2022-11-03T17:19:18.213Z,12.20
2022-11-03T17:21:48.725Z,12.20
2022-11-03T17:24:19.535Z,12.20
2022-11-03T17:29:36.499Z,12.30
2022-11-03T17:32:09.765Z,12.30
2022-11-03T17:34:40.867Z,12.30
2022-11-03T17:37:11.746Z,12.30
2022-11-03T17:39:42.518Z,12.30
2022-11-03T17:42:24.917Z,12.30
2022-11-03T17:44:58.017Z,12.30
2022-11-03T17:47:29.149Z,12.30
2022-11-03T17:50:00.447Z,12.30
2022-11-03T17:52:33.010Z,12.30
2022-11-03T17:55:08.027Z,12.40
2022-11-03T17:57:38.765Z,12.30
2022-11-03T18:00:14.739Z,12.40
2022-11-03T18:02:45.716Z,12.40
2022-11-03T18:05:23.529Z,12.50
2022-11-03T18:07:55.025Z,12.50
2022-11-03T18:10:27.688Z,12.50
2022-11-03T18:13:19.566Z,12.50
2022-11-03T18:15:52.538Z,12.50
2022-11-03T18:18:27.919Z,12.60
2022-11-03T18:20:59.194Z,12.60
2022-11-03T18:23:32.569Z,12.60
2022-11-03T18:26:04.509Z,12.60
2022-11-03T18:28:35.200Z,12.60
2022-11-03T18:31:07.438Z,12.60
2022-11-03T18:33:38.972Z,12.60
2022-11-03T18:36:12.730Z,12.60
2022-11-03T18:38:45.457Z,12.60
2022-11-03T18:41:39.896Z,12.70
2022-11-03T18:44:17.341Z,12.70
2022-11-03T18:46:49.012Z,12.80
2022-11-03T18:49:20.349Z,12.70
2022-11-03T18:51:59.160Z,12.70
2022-11-03T18:54:28.412Z,12.70
2022-11-03T18:56:59.356Z,12.80
2022-11-03T18:59:32.300Z,12.80
2022-11-03T19:02:03.243Z,12.90
2022-11-03T19:04:34.064Z,12.90
2022-11-03T19:07:06.240Z,12.90
2022-11-03T19:09:36.934Z,12.90
2022-11-03T19:12:09.692Z,12.80
2022-11-03T19:14:43.050Z,12.80
2022-11-03T19:17:22.906Z,12.80
2022-11-03T19:19:49.817Z,12.80
2022-11-03T19:22:22.470Z,12.80
2022-11-03T19:24:53.149Z,12.80
2022-11-03T19:27:26.700Z,12.70
2022-11-03T19:29:58.736Z,12.80
2022-11-03T19:32:32.558Z,12.80
2022-11-03T19:35:07.028Z,12.90
2022-11-03T19:37:37.984Z,13.00
2022-11-03T19:40:11.743Z,13.00
2022-11-03T19:42:42.452Z,13.00
2022-11-03T19:45:16.616Z,13.00
2022-11-03T19:48:18.314Z,13.00
2022-11-03T19:50:25.296Z,13.10
2022-11-03T19:53:00.948Z,13.10
2022-11-03T19:55:34.052Z,13.10
2022-11-03T19:58:08.776Z,13.10
2022-11-03T20:00:39.855Z,13.10
2022-11-03T20:03:10.447Z,13.10
2022-11-03T20:05:45.135Z,13.20
2022-11-03T20:08:18.485Z,13.10
2022-11-03T20:10:49.178Z,13.20
2022-11-03T20:13:23.322Z,13.20
2022-11-03T20:16:00.246Z,13.20
2022-11-03T20:18:27.657Z,13.20
2022-11-03T20:20:59.090Z,13.20
2022-11-03T20:23:31.685Z,13.20
2022-11-03T20:26:02.959Z,13.20
2022-11-03T20:28:37.512Z,13.20
2022-11-03T20:31:08.481Z,13.20
2022-11-03T20:33:40.232Z,13.30
2022-11-03T20:36:16.248Z,13.30
2022-11-03T20:38:50.052Z,13.40
2022-11-03T20:41:20.708Z,13.40
2022-11-03T20:43:53.191Z,13.40
2022-11-03T20:46:29.060Z,13.40
2022-11-03T20:48:59.664Z,13.30
2022-11-03T20:51:33.801Z,13.20
2022-11-03T20:54:08.277Z,13.20
2022-11-03T20:56:38.822Z,13.20
2022-11-03T20:59:11.162Z,13.20
2022-11-03T21:01:43.219Z,13.10
2022-11-03T21:04:17.322Z,13.00
2022-11-03T21:06:48.326Z,13.00
2022-11-03T21:09:20.462Z,13.00
2022-11-03T21:11:52.850Z,13.00
2022-11-03T21:14:26.076Z,13.00
2022-11-03T21:17:14.618Z,13.10
2022-11-03T21:20:01.973Z,13.00
2022-11-03T21:22:53.256Z,12.90
2022-11-03T21:25:13.300Z,12.80
2022-11-03T21:27:43.835Z,12.80
2022-11-03T21:30:16.879Z,12.80
2022-11-03T21:32:48.077Z,12.60
2022-11-03T21:35:20.856Z,12.50
2022-11-03T21:37:51.908Z,12.40
2022-11-03T21:40:22.517Z,12.30
2022-11-03T21:43:10.461Z,12.20
2022-11-03T21:45:41.146Z,12.10
2022-11-03T21:48:29.283Z,12.10
2022-11-03T21:51:03.311Z,12.10
2022-11-03T21:53:33.940Z,12.00
2022-11-03T21:56:04.617Z,11.90
2022-11-03T21:58:35.693Z,11.90
2022-11-03T22:01:07.360Z,11.90
2022-11-03T22:03:39.608Z,11.80
2022-11-03T22:06:11.565Z,11.80
2022-11-03T22:08:43.911Z,11.80
2022-11-03T22:14:01.550Z,11.50
2022-11-03T22:16:38.140Z,11.40
2022-11-03T22:19:28.889Z,11.30
2022-11-03T22:22:18.060Z,11.20
2022-11-03T22:25:06.136Z,11.20
2022-11-03T22:27:37.022Z,11.10
2022-11-03T22:30:27.393Z,11.10
2022-11-03T22:32:59.352Z,11.10
2022-11-03T22:35:47.732Z,11.10
2022-11-03T22:38:21.098Z,11.10
2022-11-03T22:41:09.315Z,11.10
2022-11-03T22:43:57.820Z,11.10
2022-11-03T22:46:28.342Z,11.10
2022-11-03T22:48:58.869Z,11.10
2022-11-03T22:51:29.457Z,11.20
2022-11-03T22:54:12.424Z,11.20
2022-11-03T22:56:43.111Z,11.20
2022-11-03T22:59:14.009Z,11.20
2022-11-03T23:01:44.623Z,11.10
2022-11-03T23:04:15.379Z,11.00
2022-11-03T23:06:45.988Z,11.00
2022-11-03T23:09:16.545Z,10.90
2022-11-03T23:11:47.070Z,10.90
2022-11-03T23:14:18.505Z,10.90
2022-11-03T23:16:49.129Z,10.80
2022-11-03T23:19:37.265Z,10.80
2022-11-03T23:22:07.821Z,10.70
2022-11-03T23:24:56.249Z,10.70
2022-11-03T23:27:26.788Z,10.70
2022-11-03T23:29:57.356Z,10.70
2022-11-03T23:32:27.944Z,10.80
2022-11-03T23:34:58.551Z,10.70
2022-11-03T23:37:29.150Z,10.60
2022-11-03T23:39:59.686Z,10.70
2022-11-03T23:42:30.189Z,10.60
2022-11-03T23:45:19.569Z,10.70
2022-11-03T23:48:07.818Z,10.70
2022-11-03T23:50:40.458Z,10.60
2022-11-03T23:53:10.978Z,10.50
2022-11-03T23:55:45.952Z,10.50
2022-11-03T23:58:19.511Z,10.50
